Time;durP1;ratioP1;P1;durP2;ratioP2;P2;SDS_P1;SDS_P2;PMS_P1;PMS_P2;Temp;Humidity;BMP_temperature;BMP_pressure;BME280_temperature;BME280_humidity;BME280_pressure;Samples;Min_cycle;Max_cycle;Signal;HPM_P1;HPM_P2
2023/10/11 00:01:54;;;;;;;0.00;0.00;;;18.80;49.30;;;;;;5113097;28;20281;-58
2023/10/11 00:04:27;;;;;;;0.00;0.00;;;18.90;49.30;;;;;;5112452;28;20220;-58
2023/10/11 00:06:58;;;;;;;0.10;0.10;;;18.90;49.40;;;;;;5113388;28;20200;-54
2023/10/11 00:09:38;;;;;;;0.10;0.10;;;18.90;49.40;;;;;;5109440;28;20570;-58
2023/10/11 00:12:22;;;;;;;0.10;0.10;;;18.90;49.40;;;;;;5112976;28;20656;-56
2023/10/11 00:14:56;;;;;;;0.10;0.10;;;19.00;49.50;;;;;;5112817;27;20566;-58
2023/10/11 00:17:29;;;;;;;0.00;0.00;;;19.00;49.50;;;;;;5112729;28;20568;-56
2023/10/11 00:20:03;;;;;;;0.00;0.00;;;19.10;49.60;;;;;;5112644;28;20287;-57
2023/10/11 00:22:34;;;;;;;0.00;0.00;;;19.10;49.60;;;;;;5112445;28;20598;-57
2023/10/11 00:25:05;;;;;;;0.00;0.00;;;19.10;49.60;;;;;;5111755;28;20221;-57
2023/10/11 00:27:36;;;;;;;0.10;0.10;;;19.10;49.70;;;;;;5112899;28;20201;-57
2023/10/11 00:30:08;;;;;;;0.00;0.00;;;19.20;49.60;;;;;;5112949;28;20204;-57
2023/10/11 00:32:40;;;;;;;0.00;0.00;;;19.20;49.60;;;;;;5112851;28;20200;-58
2023/10/11 00:35:18;;;;;;;0.00;0.00;;;19.20;49.50;;;;;;5112605;28;20225;-58
2023/10/11 00:37:51;;;;;;;0.10;0.10;;;19.30;49.50;;;;;;5112262;28;20197;-57
2023/10/11 00:40:26;;;;;;;0.00;0.00;;;19.30;49.50;;;;;;5112112;28;20292;-58
2023/10/11 00:42:56;;;;;;;0.10;0.10;;;19.30;49.50;;;;;;5112430;28;20221;-56
2023/10/11 00:45:31;;;;;;;0.10;0.10;;;19.40;49.70;;;;;;5111615;28;20707;-56
2023/10/11 00:48:07;;;;;;;0.10;0.10;;;19.40;49.70;;;;;;5094183;28;20234;-56
2023/10/11 00:50:38;;;;;;;0.10;0.10;;;19.40;49.80;;;;;;5091682;28;20240;-55
2023/10/11 00:53:12;;;;;;;0.00;0.00;;;19.50;49.80;;;;;;5091883;28;20572;-58
2023/10/11 00:55:43;;;;;;;0.00;0.00;;;19.50;50.50;;;;;;5111323;28;20249;-58
2023/10/11 00:58:17;;;;;;;0.00;0.00;;;19.60;49.90;;;;;;5112306;28;20201;-58
2023/10/11 01:00:49;;;;;;;0.10;0.10;;;19.60;50.00;;;;;;5112013;28;20242;-57
2023/10/11 01:03:23;;;;;;;0.00;0.00;;;19.60;49.90;;;;;;5112083;28;20225;-57
2023/10/11 01:05:55;;;;;;;0.08;0.08;;;19.70;50.00;;;;;;5111910;28;20213;-58
2023/10/11 01:08:27;;;;;;;0.00;0.00;;;19.70;50.10;;;;;;5111824;28;20193;-56
2023/10/11 01:10:57;;;;;;;0.00;0.00;;;19.70;50.10;;;;;;5111517;28;20197;-57
2023/10/11 01:13:28;;;;;;;0.00;0.00;;;19.70;49.90;;;;;;5111662;28;20204;-57
2023/10/11 01:15:59;;;;;;;0.00;0.00;;;19.80;49.80;;;;;;5110685;28;20220;-57
2023/10/11 01:18:32;;;;;;;0.00;0.00;;;19.80;49.70;;;;;;5091397;28;20190;-57
2023/10/11 01:21:05;;;;;;;0.00;0.00;;;19.90;49.70;;;;;;5091378;28;20220;-55
2023/10/11 01:23:36;;;;;;;0.00;0.00;;;19.90;49.70;;;;;;5091435;28;20613;-57
2023/10/11 01:26:10;;;;;;;0.10;0.10;;;19.90;49.70;;;;;;5090994;28;20221;-47
2023/10/11 01:28:42;;;;;;;0.00;0.00;;;20.00;49.80;;;;;;5091836;28;20198;-57
2023/10/11 01:31:13;;;;;;;0.00;0.00;;;20.00;49.80;;;;;;5091980;28;20533;-55
2023/10/11 01:33:44;;;;;;;0.10;0.10;;;20.00;49.80;;;;;;5093549;28;20186;-58
2023/10/11 01:36:20;;;;;;;0.05;0.05;;;20.10;49.80;;;;;;5091471;28;20226;-51
2023/10/11 01:38:51;;;;;;;0.08;0.08;;;20.10;49.80;;;;;;5091230;28;20190;-57
2023/10/11 01:41:25;;;;;;;0.10;0.10;;;20.20;49.90;;;;;;5091638;28;20194;-57
2023/10/11 01:43:56;;;;;;;0.00;0.00;;;20.20;49.90;;;;;;5090949;28;20634;-57
2023/10/11 01:46:27;;;;;;;0.10;0.10;;;20.20;49.90;;;;;;5090645;28;20205;-57
2023/10/11 01:49:00;;;;;;;0.00;0.00;;;20.30;49.90;;;;;;5093046;28;20278;-57
2023/10/11 01:51:38;;;;;;;0.00;0.00;;;20.30;49.90;;;;;;5112139;28;20296;-56
2023/10/11 01:54:09;;;;;;;0.00;0.00;;;20.30;49.80;;;;;;5110925;28;20254;-57
2023/10/11 01:56:40;;;;;;;0.03;0.03;;;20.40;49.70;;;;;;5111022;28;20201;-56
2023/10/11 01:59:12;;;;;;;0.10;0.10;;;20.40;49.60;;;;;;5110488;28;20194;-57
2023/10/11 02:01:43;;;;;;;0.10;0.10;;;20.40;49.50;;;;;;5110590;28;20258;-57
2023/10/11 02:04:17;;;;;;;0.03;0.03;;;20.50;49.40;;;;;;5110922;28;20272;-54
2023/10/11 02:06:50;;;;;;;0.00;0.00;;;20.50;49.40;;;;;;5111092;28;20203;-57
2023/10/11 02:09:23;;;;;;;0.00;0.00;;;20.60;49.40;;;;;;5111109;28;20190;-58
2023/10/11 02:11:54;;;;;;;0.10;0.10;;;20.60;49.40;;;;;;5111238;28;20189;-57
2023/10/11 02:14:25;;;;;;;0.05;0.05;;;20.60;49.30;;;;;;5107918;28;20305;-54
2023/10/11 02:16:56;;;;;;;0.00;0.00;;;20.60;49.30;;;;;;5090835;28;20566;-55
2023/10/11 02:19:29;;;;;;;0.00;0.00;;;20.70;49.40;;;;;;5090493;28;20198;-56
2023/10/11 02:22:02;;;;;;;0.00;0.00;;;20.70;49.30;;;;;;5091299;28;20198;-58
2023/10/11 02:24:35;;;;;;;0.10;0.10;;;20.70;49.30;;;;;;5090945;28;20229;-58
2023/10/11 02:27:17;;;;;;;0.00;0.00;;;20.70;49.20;;;;;;5091873;28;20221;-52
2023/10/11 02:29:49;;;;;;;0.10;0.10;;;20.80;49.30;;;;;;5094502;28;20194;-54
2023/10/11 02:32:19;;;;;;;0.00;0.00;;;20.80;49.20;;;;;;5094571;28;20230;-58
2023/10/11 02:34:50;;;;;;;0.00;0.00;;;20.80;49.20;;;;;;5093770;28;20214;-56
2023/10/11 02:37:29;;;;;;;0.00;0.00;;;20.90;49.20;;;;;;5093860;28;20194;-52
2023/10/11 02:40:05;;;;;;;0.00;0.00;;;20.90;49.00;;;;;;5094064;28;20548;-55
2023/10/11 02:42:37;;;;;;;0.00;0.00;;;21.00;48.90;;;;;;5094963;28;20197;-53
2023/10/11 02:45:08;;;;;;;0.00;0.00;;;21.00;48.80;;;;;;5114180;28;20308;-52
2023/10/11 02:47:39;;;;;;;0.00;0.00;;;21.00;48.70;;;;;;5099257;28;20261;-58
2023/10/11 02:50:10;;;;;;;0.00;0.00;;;21.10;48.80;;;;;;5093903;28;20195;-53
2023/10/11 02:52:43;;;;;;;0.00;0.00;;;21.10;48.70;;;;;;5094303;28;20236;-56
2023/10/11 02:55:20;;;;;;;0.08;0.08;;;21.10;48.80;;;;;;5094121;28;20697;-53
2023/10/11 02:58:05;;;;;;;0.00;0.00;;;21.20;48.90;;;;;;5093950;28;20208;-57
2023/10/11 03:00:37;;;;;;;0.03;0.03;;;21.20;48.90;;;;;;5100322;28;20190;-58
2023/10/11 03:03:10;;;;;;;0.00;0.00;;;21.30;48.90;;;;;;5113818;28;20213;-57
2023/10/11 03:05:41;;;;;;;0.00;0.00;;;21.30;48.90;;;;;;5113688;27;20217;-57
2023/10/11 03:08:18;;;;;;;0.00;0.00;;;21.40;48.90;;;;;;5114266;28;20237;-52
2023/10/11 03:10:53;;;;;;;0.10;0.10;;;21.40;48.90;;;;;;5114238;28;20208;-56
2023/10/11 03:13:29;;;;;;;0.00;0.00;;;21.40;48.80;;;;;;5113971;28;20197;-56
2023/10/11 03:16:00;;;;;;;0.00;0.00;;;21.40;48.80;;;;;;5113114;28;20213;-57
2023/10/11 03:18:32;;;;;;;0.05;0.05;;;21.50;48.80;;;;;;5093646;28;20561;-57
2023/10/11 03:21:16;;;;;;;0.00;0.00;;;21.50;48.60;;;;;;5093367;28;20206;-57
2023/10/11 03:23:54;;;;;;;0.00;0.00;;;21.50;48.40;;;;;;5093582;28;20217;-54
2023/10/11 03:26:31;;;;;;;0.00;0.00;;;21.60;48.30;;;;;;5111070;28;20203;-56
2023/10/11 03:29:04;;;;;;;0.10;0.10;;;21.60;48.20;;;;;;5114116;28;20560;-55
2023/10/11 03:31:40;;;;;;;0.00;0.00;;;21.60;48.10;;;;;;5113519;28;20190;-55
2023/10/11 03:34:12;;;;;;;0.10;0.10;;;21.70;48.10;;;;;;5113480;27;20228;-56
2023/10/11 03:36:49;;;;;;;0.00;0.00;;;21.70;48.10;;;;;;5113796;28;20193;-58
2023/10/11 03:39:39;;;;;;;0.10;0.10;;;21.70;48.10;;;;;;5113783;28;20197;-58
2023/10/11 03:42:14;;;;;;;0.00;0.00;;;21.80;48.20;;;;;;5113504;28;20186;-57
2023/10/11 03:44:47;;;;;;;0.00;0.00;;;21.80;48.10;;;;;;5113645;28;20293;-57
2023/10/11 03:47:24;;;;;;;0.10;0.10;;;21.90;48.10;;;;;;5101566;28;20245;-58
2023/10/11 03:49:54;;;;;;;0.10;0.10;;;21.80;48.10;;;;;;5092874;28;20233;-57
2023/10/11 03:52:30;;;;;;;0.00;0.00;;;21.90;48.10;;;;;;5093319;28;20201;-57
2023/10/11 03:55:04;;;;;;;0.00;0.00;;;21.90;48.10;;;;;;5092855;28;20301;-54
2023/10/11 03:57:36;;;;;;;0.00;0.00;;;21.90;48.10;;;;;;5111374;28;20279;-55
2023/10/11 04:00:24;;;;;;;0.00;0.00;;;21.90;48.00;;;;;;5113237;28;20198;-56
2023/10/11 04:02:57;;;;;;;0.10;0.10;;;22.00;47.90;;;;;;5113197;28;20281;-54
2023/10/11 04:05:34;;;;;;;0.00;0.00;;;22.00;47.70;;;;;;5109771;28;20267;-57
2023/10/11 04:08:07;;;;;;;0.00;0.00;;;22.00;47.60;;;;;;5113376;28;20443;-57
2023/10/11 04:10:46;;;;;;;0.08;0.08;;;22.00;47.60;;;;;;5112942;28;20534;-52
2023/10/11 04:13:18;;;;;;;0.10;0.10;;;22.00;48.00;;;;;;5112902;28;20244;-54
2023/10/11 04:15:49;;;;;;;0.00;0.00;;;22.10;47.40;;;;;;5113173;28;20224;-55
2023/10/11 04:18:33;;;;;;;0.00;0.00;;;22.00;47.30;;;;;;5112873;28;20616;-57
2023/10/11 04:23:55;;;;;;;0.00;0.00;;;22.10;47.40;;;;;;5112082;28;20232;-52
2023/10/11 04:26:40;;;;;;;0.00;0.00;;;22.10;47.40;;;;;;5112449;28;20200;-56
2023/10/11 04:29:18;;;;;;;0.00;0.00;;;22.10;47.50;;;;;;5113242;28;20766;-57
2023/10/11 04:32:09;;;;;;;0.08;0.08;;;22.10;47.50;;;;;;5113207;28;20193;-56
2023/10/11 04:34:48;;;;;;;0.00;0.00;;;22.10;47.50;;;;;;5112278;28;20213;-57
2023/10/11 04:37:27;;;;;;;0.00;0.00;;;22.10;47.50;;;;;;5111971;28;20224;-56
2023/10/11 04:40:16;;;;;;;0.00;0.00;;;22.10;47.50;;;;;;5111618;28;20473;-57
2023/10/11 04:43:04;;;;;;;0.10;0.10;;;22.10;47.40;;;;;;5112101;28;20284;-56
2023/10/11 04:45:44;;;;;;;0.00;0.00;;;22.10;47.40;;;;;;5112202;28;20231;-57
2023/10/11 04:48:18;;;;;;;0.00;0.00;;;22.10;47.40;;;;;;5091919;28;20205;-57
2023/10/11 04:50:50;;;;;;;0.00;0.00;;;22.10;47.40;;;;;;5091831;28;20197;-53
2023/10/11 04:53:22;;;;;;;0.08;0.08;;;22.10;47.30;;;;;;5091852;28;20281;-57
2023/10/11 04:56:09;;;;;;;0.00;0.00;;;22.10;47.30;;;;;;5091416;28;20220;-53
2023/10/11 04:58:42;;;;;;;0.00;0.00;;;22.10;47.20;;;;;;5091397;28;20686;-55
2023/10/11 05:01:16;;;;;;;0.00;0.00;;;22.10;47.10;;;;;;5099561;28;20238;-57
2023/10/11 05:03:53;;;;;;;0.00;0.00;;;22.20;47.10;;;;;;5111599;28;20216;-55
2023/10/11 05:06:30;;;;;;;0.10;0.10;;;22.10;47.10;;;;;;5111137;28;20280;-56
2023/10/11 05:09:13;;;;;;;0.10;0.10;;;22.20;47.50;;;;;;5111151;28;20197;-57
2023/10/11 05:11:46;;;;;;;0.08;0.08;;;22.20;46.80;;;;;;5112260;28;20675;-57
2023/10/11 05:14:36;;;;;;;0.00;0.00;;;22.20;46.80;;;;;;5111943;28;20217;-58
2023/10/11 05:17:33;;;;;;;0.00;0.00;;;22.20;46.90;;;;;;5101373;28;20204;-56
2023/10/11 05:23:04;;;;;;;0.00;0.00;;;22.20;46.80;;;;;;5105701;28;20197;-56
2023/10/11 05:28:44;;;;;;;0.00;0.00;;;22.20;46.80;;;;;;5112366;28;20196;-56
2023/10/11 05:31:22;;;;;;;0.05;0.05;;;22.30;46.70;;;;;;5110304;28;20230;-55
2023/10/11 05:34:29;;;;;;;0.00;0.00;;;22.20;46.80;;;;;;5111661;28;20649;-57
2023/10/11 05:50:56;;;;;;;0.00;0.00;;;22.20;46.70;;;;;;5109552;28;20212;-57
2023/10/11 05:53:29;;;;;;;0.00;0.00;;;22.20;46.60;;;;;;5102171;28;20281;-57
2023/10/11 05:56:00;;;;;;;0.00;0.00;;;22.20;46.50;;;;;;5111016;27;20224;-59
2023/10/11 05:58:34;;;;;;;0.00;0.00;;;22.20;46.50;;;;;;5111232;28;20664;-56
2023/10/11 06:01:06;;;;;;;0.10;0.10;;;22.10;46.30;;;;;;5098884;28;20545;-58
2023/10/11 06:03:38;;;;;;;0.08;0.08;;;22.10;46.20;;;;;;5094454;28;20729;-57
2023/10/11 06:06:23;;;;;;;0.00;0.00;;;22.10;46.10;;;;;;5111082;28;20225;-55
2023/10/11 06:08:54;;;;;;;0.00;0.00;;;22.20;46.10;;;;;;5114889;28;20198;-57
2023/10/11 06:11:29;;;;;;;0.00;0.00;;;22.10;45.90;;;;;;5114042;28;20194;-50
2023/10/11 06:14:04;;;;;;;0.00;0.00;;;22.10;45.90;;;;;;5113477;27;20756;-54
2023/10/11 06:16:37;;;;;;;0.00;0.00;;;22.10;46.00;;;;;;5093130;28;20233;-56
2023/10/11 06:19:19;;;;;;;0.00;0.00;;;22.10;45.90;;;;;;5097336;27;20193;-56
2023/10/11 06:21:59;;;;;;;0.10;0.10;;;22.10;46.00;;;;;;5114366;28;20285;-46
2023/10/11 06:24:33;;;;;;;0.00;0.00;;;22.10;46.00;;;;;;5114399;28;20212;-52
2023/10/11 06:29:59;;;;;;;0.00;0.00;;;22.00;46.00;;;;;;5103400;28;20194;-54
2023/10/11 06:32:30;;;;;;;0.00;0.00;;;22.00;46.00;;;;;;5113222;28;20207;-58
2023/10/11 06:35:04;;;;;;;0.10;0.10;;;22.00;46.00;;;;;;5113981;28;20214;-58
2023/10/11 06:37:36;;;;;;;0.00;0.00;;;22.00;45.80;;;;;;5114213;27;20740;-56
2023/10/11 06:40:13;;;;;;;0.10;0.10;;;22.00;45.70;;;;;;5106148;27;20229;-58
2023/10/11 06:42:43;;;;;;;0.00;0.00;;;22.00;45.70;;;;;;5093739;28;20766;-54
2023/10/11 06:45:20;;;;;;;0.10;0.10;;;21.90;45.60;;;;;;5104002;27;20227;-58
2023/10/11 06:47:50;;;;;;;0.00;0.00;;;21.90;45.70;;;;;;5096389;28;20206;-58
2023/10/11 06:50:24;;;;;;;0.00;0.00;;;21.90;45.60;;;;;;5105056;28;20290;-54
2023/10/11 06:52:54;;;;;;;0.10;0.10;;;21.80;45.50;;;;;;5114418;28;20194;-58
2023/10/11 06:55:25;;;;;;;0.00;0.00;;;21.80;45.50;;;;;;5108906;28;20648;-57
2023/10/11 06:57:56;;;;;;;0.00;0.00;;;21.80;45.50;;;;;;5114411;28;20236;-58
2023/10/11 07:00:29;;;;;;;0.00;0.00;;;21.80;45.50;;;;;;5112911;28;20272;-57
2023/10/11 07:03:09;;;;;;;0.10;0.10;;;21.70;45.60;;;;;;5113076;27;20289;-57
2023/10/11 07:05:46;;;;;;;0.10;0.10;;;21.80;45.60;;;;;;5113735;27;20231;-57
2023/10/11 07:08:18;;;;;;;0.00;0.00;;;21.70;45.60;;;;;;5104881;28;20201;-58
2023/10/11 07:11:00;;;;;;;0.10;0.10;;;21.70;45.60;;;;;;5106908;28;20221;-57
2023/10/11 07:13:49;;;;;;;0.05;0.05;;;21.70;45.60;;;;;;5111277;28;20305;-51
2023/10/11 07:16:20;;;;;;;0.10;0.10;;;21.70;45.60;;;;;;5122132;27;20252;-54
2023/10/11 07:18:54;;;;;;;0.10;0.10;;;21.70;45.50;;;;;;5092564;28;20289;-57
2023/10/11 07:21:44;;;;;;;0.00;0.00;;;21.60;45.50;;;;;;5106234;27;20298;-57
2023/10/11 07:24:31;;;;;;;0.00;0.00;;;21.60;45.50;;;;;;5092859;28;20249;-57
2023/10/11 07:27:09;;;;;;;0.08;0.08;;;21.60;45.50;;;;;;5113910;28;20193;-58
2023/10/11 07:29:42;;;;;;;0.03;0.03;;;21.60;45.50;;;;;;5113328;28;20214;-57
2023/10/11 07:32:13;;;;;;;0.00;0.00;;;21.60;45.40;;;;;;5112548;28;20225;-58
2023/10/11 07:34:47;;;;;;;0.10;0.10;;;21.50;45.30;;;;;;5106890;28;20218;-56
2023/10/11 07:37:26;;;;;;;0.00;0.00;;;21.50;45.30;;;;;;5113295;28;20765;-56
2023/10/11 07:40:08;;;;;;;0.00;0.00;;;21.50;45.30;;;;;;5113003;28;20190;-55
2023/10/11 07:42:39;;;;;;;0.00;0.00;;;21.50;45.30;;;;;;5112494;28;20288;-56
2023/10/11 07:45:12;;;;;;;0.00;0.00;;;21.40;45.30;;;;;;5111908;28;20228;-54
2023/10/11 07:47:45;;;;;;;0.00;0.00;;;21.40;45.30;;;;;;5097462;28;20278;-57
2023/10/11 07:50:22;;;;;;;0.03;0.03;;;21.40;45.30;;;;;;5100016;28;20275;-58
2023/10/11 07:52:55;;;;;;;0.08;0.08;;;21.40;45.30;;;;;;5112494;27;20189;-57
2023/10/11 07:55:26;;;;;;;0.10;0.10;;;21.30;45.30;;;;;;5112490;28;20585;-51
2023/10/11 07:58:00;;;;;;;0.10;0.10;;;21.30;45.30;;;;;;5111577;28;20207;-55
2023/10/11 08:00:31;;;;;;;0.00;0.00;;;21.30;45.30;;;;;;5108704;27;20282;-57
2023/10/11 08:03:04;;;;;;;0.10;0.10;;;21.30;45.30;;;;;;5100348;27;20235;-57
2023/10/11 08:05:45;;;;;;;0.10;0.10;;;21.30;45.40;;;;;;5133514;27;20340;-57
2023/10/11 08:08:20;;;;;;;0.00;0.00;;;21.20;45.30;;;;;;5133597;27;20281;-56
2023/10/11 08:10:52;;;;;;;0.10;0.10;;;21.20;45.30;;;;;;5133325;27;20192;-55
2023/10/11 08:13:26;;;;;;;0.00;0.00;;;21.20;45.30;;;;;;5103812;27;20646;-56
2023/10/11 08:15:58;;;;;;;0.00;0.00;;;21.20;45.30;;;;;;5102906;28;20596;-55
2023/10/11 08:18:29;;;;;;;0.10;0.10;;;21.20;45.30;;;;;;5093247;28;20194;-56
2023/10/11 08:21:00;;;;;;;0.00;0.00;;;21.20;45.30;;;;;;5092012;28;20244;-51
2023/10/11 08:23:33;;;;;;;0.00;0.00;;;21.10;45.20;;;;;;5092067;28;20281;-56
2023/10/11 08:26:07;;;;;;;0.10;0.10;;;21.10;45.30;;;;;;5091339;28;20226;-51
2023/10/11 08:28:46;;;;;;;0.10;0.10;;;21.10;45.30;;;;;;5092947;28;20668;-57
2023/10/11 08:31:35;;;;;;;0.05;0.05;;;21.10;45.30;;;;;;5096443;28;20208;-57
2023/10/11 08:34:06;;;;;;;0.10;0.10;;;21.00;45.30;;;;;;5091835;28;20190;-51
2023/10/11 08:36:37;;;;;;;0.08;0.08;;;21.00;45.30;;;;;;5091322;28;20277;-55
2023/10/11 08:39:13;;;;;;;0.00;0.00;;;21.00;45.30;;;;;;5091872;28;20661;-53
2023/10/11 08:41:45;;;;;;;0.00;0.00;;;21.00;45.40;;;;;;5091397;27;20198;-57
2023/10/11 08:44:20;;;;;;;0.03;0.03;;;20.90;45.40;;;;;;5102232;28;20248;-55
2023/10/11 08:46:53;;;;;;;0.00;0.00;;;20.90;45.40;;;;;;5097765;27;20360;-57
2023/10/11 08:49:24;;;;;;;0.10;0.10;;;20.90;45.40;;;;;;5095349;28;20589;-56
2023/10/11 08:52:00;;;;;;;0.10;0.10;;;20.90;45.40;;;;;;5101162;27;20189;-56
2023/10/11 08:54:32;;;;;;;0.10;0.10;;;20.90;45.40;;;;;;5131119;27;20223;-53
2023/10/11 08:57:03;;;;;;;0.08;0.08;;;20.90;45.40;;;;;;5115327;27;20280;-55
2023/10/11 08:59:44;;;;;;;0.00;0.00;;;20.90;45.30;;;;;;5111027;28;20665;-56
2023/10/11 09:02:17;;;;;;;0.00;0.00;;;20.80;45.30;;;;;;5099134;28;20200;-56
2023/10/11 09:05:06;;;;;;;0.10;0.10;;;20.80;45.20;;;;;;5110943;28;20303;-57
2023/10/11 09:07:45;;;;;;;0.00;0.00;;;20.80;45.20;;;;;;5111990;28;20196;-57
2023/10/11 09:10:28;;;;;;;0.10;0.10;;;20.80;45.20;;;;;;5091067;28;20642;-55
2023/10/11 09:12:59;;;;;;;0.03;0.03;;;20.70;45.20;;;;;;5103293;28;20388;-56
2023/10/11 09:15:42;;;;;;;0.10;0.10;;;20.70;45.20;;;;;;5111045;28;20222;-54
2023/10/11 09:18:17;;;;;;;0.10;0.10;;;20.70;45.20;;;;;;5105909;28;20204;-57
2023/10/11 09:20:55;;;;;;;0.10;0.10;;;20.70;45.20;;;;;;5104192;28;20213;-57
2023/10/11 09:23:38;;;;;;;0.00;0.00;;;20.60;45.20;;;;;;5107272;28;20193;-57
2023/10/11 09:26:12;;;;;;;0.00;0.00;;;20.60;45.20;;;;;;5111081;28;20229;-56
2023/10/11 09:28:56;;;;;;;0.10;0.10;;;20.60;45.20;;;;;;5108352;28;20188;-52
2023/10/11 09:31:27;;;;;;;0.00;0.00;;;20.60;45.20;;;;;;5110375;28;20197;-57
2023/10/11 09:33:59;;;;;;;0.10;0.10;;;20.60;45.20;;;;;;5109292;28;20193;-57
2023/10/11 09:36:31;;;;;;;0.03;0.03;;;20.60;45.20;;;;;;5103821;28;20239;-54
2023/10/11 09:39:03;;;;;;;0.00;0.00;;;20.50;45.10;;;;;;5136419;27;20196;-54
2023/10/11 09:41:40;;;;;;;0.10;0.10;;;20.50;45.10;;;;;;5136035;27;20189;-54
2023/10/11 09:44:14;;;;;;;0.00;0.00;;;20.40;45.10;;;;;;5094683;28;20276;-57
2023/10/11 09:46:46;;;;;;;0.08;0.08;;;20.40;45.10;;;;;;5094715;28;20294;-56
2023/10/11 09:49:21;;;;;;;0.10;0.10;;;20.40;45.10;;;;;;5096286;28;20205;-57
2023/10/11 09:51:52;;;;;;;0.00;0.00;;;20.40;45.10;;;;;;5096806;27;20285;-54
2023/10/11 09:54:27;;;;;;;0.08;0.08;;;20.40;45.10;;;;;;5115424;28;20209;-54
2023/10/11 09:57:06;;;;;;;0.00;0.00;;;20.40;45.10;;;;;;5114747;27;20276;-51
2023/10/11 09:59:48;;;;;;;0.10;0.10;;;20.30;45.60;;;;;;5114579;28;20189;-51
2023/10/11 10:02:24;;;;;;;0.10;0.10;;;20.30;45.00;;;;;;5102184;28;20268;-56
2023/10/11 10:05:04;;;;;;;0.10;0.10;;;20.30;45.00;;;;;;5114507;28;20696;-54
2023/10/11 10:07:44;;;;;;;0.00;0.00;;;20.30;45.00;;;;;;5114316;27;20185;-56
2023/10/11 10:10:15;;;;;;;0.00;0.00;;;20.30;45.10;;;;;;5114327;28;20235;-54
2023/10/11 10:13:04;;;;;;;0.00;0.00;;;20.20;45.10;;;;;;5104940;27;20202;-52
2023/10/11 10:15:47;;;;;;;0.00;0.00;;;20.20;45.10;;;;;;5093638;28;20213;-57
2023/10/11 10:18:23;;;;;;;0.10;0.10;;;20.20;45.10;;;;;;5105338;28;20186;-49
2023/10/11 10:21:04;;;;;;;0.00;0.00;;;20.20;45.10;;;;;;5113780;28;20200;-53
2023/10/11 10:23:37;;;;;;;0.10;0.10;;;20.20;45.10;;;;;;5113740;27;20200;-54
2023/10/11 10:26:43;;;;;;;0.10;0.10;;;20.20;45.10;;;;;;5114830;28;20519;-57
2023/10/11 10:29:15;;;;;;;0.00;0.00;;;20.10;45.10;;;;;;5113775;28;20205;-57
2023/10/11 10:32:07;;;;;;;0.00;0.00;;;20.10;45.00;;;;;;5114216;28;20668;-57
2023/10/11 10:34:41;;;;;;;0.00;0.00;;;20.10;45.00;;;;;;5093686;28;20728;-55
2023/10/11 10:37:45;;;;;;;0.10;0.10;;;20.10;45.00;;;;;;5102450;28;20219;-56
2023/10/11 10:40:24;;;;;;;0.05;0.05;;;20.00;45.00;;;;;;5105356;28;20216;-56
2023/10/11 10:43:19;;;;;;;0.00;0.00;;;20.00;45.00;;;;;;5101354;27;20695;-57
2023/10/11 10:45:53;;;;;;;0.00;0.00;;;20.00;45.00;;;;;;5103428;28;20316;-57
2023/10/11 10:48:24;;;;;;;0.10;0.10;;;20.00;45.00;;;;;;5094909;27;20194;-56
2023/10/11 10:51:01;;;;;;;0.00;0.00;;;20.00;45.10;;;;;;5095410;28;20597;-52
2023/10/11 10:53:39;;;;;;;0.10;0.10;;;19.90;45.00;;;;;;5102874;28;20547;-46
2023/10/11 10:56:24;;;;;;;0.10;0.10;;;19.90;45.00;;;;;;5102553;28;20275;-54
2023/10/11 10:59:07;;;;;;;0.00;0.00;;;19.90;45.00;;;;;;5103348;28;20190;-57
2023/10/11 11:01:39;;;;;;;0.10;0.10;;;19.90;45.00;;;;;;5093110;28;20222;-55
2023/10/11 11:04:09;;;;;;;0.00;0.00;;;19.90;45.00;;;;;;5093233;28;20274;-54
2023/10/11 11:06:44;;;;;;;0.10;0.10;;;19.90;45.00;;;;;;5093533;28;20225;-56
2023/10/11 11:09:19;;;;;;;0.00;0.00;;;19.90;45.10;;;;;;5093541;28;20211;-54
2023/10/11 11:11:49;;;;;;;0.10;0.10;;;19.80;45.00;;;;;;5093585;28;20272;-53
2023/10/11 11:14:20;;;;;;;0.00;0.00;;;19.80;45.00;;;;;;5093368;28;20198;-56
2023/10/11 11:16:59;;;;;;;0.10;0.10;;;19.80;45.00;;;;;;5093087;28;20266;-46
2023/10/11 11:19:34;;;;;;;0.00;0.00;;;19.80;44.90;;;;;;5106301;28;20276;-53
2023/10/11 11:22:11;;;;;;;0.10;0.10;;;19.80;45.00;;;;;;5105433;28;20201;-55
2023/10/11 11:24:43;;;;;;;0.00;0.00;;;19.70;44.90;;;;;;5103906;28;20297;-52
2023/10/11 11:27:18;;;;;;;0.10;0.10;;;19.70;44.90;;;;;;5102508;28;20222;-56
2023/10/11 11:29:49;;;;;;;0.00;0.00;;;19.70;44.90;;;;;;5102131;28;20192;-56
2023/10/11 11:32:37;;;;;;;0.00;0.00;;;19.70;45.50;;;;;;5102071;28;20232;-55
2023/10/11 11:35:10;;;;;;;0.03;0.03;;;19.70;44.90;;;;;;5103346;28;20254;-55
2023/10/11 11:37:39;;;;;;;0.10;0.10;;;19.70;44.90;;;;;;5106575;28;20196;-57
2023/10/11 11:40:24;;;;;;;0.10;0.10;;;19.60;44.90;;;;;;5113149;28;20239;-55
2023/10/11 11:42:53;;;;;;;0.10;0.10;;;19.60;44.90;;;;;;5113060;28;20208;-56
2023/10/11 11:45:26;;;;;;;0.10;0.10;;;19.60;44.90;;;;;;5113426;28;20209;-54
2023/10/11 11:47:57;;;;;;;0.00;0.00;;;19.60;44.90;;;;;;5113355;28;20668;-54
2023/10/11 11:50:30;;;;;;;0.10;0.10;;;19.60;44.90;;;;;;5113469;28;20190;-56
2023/10/11 11:53:01;;;;;;;0.10;0.10;;;19.60;44.90;;;;;;5113019;28;20193;-53
2023/10/11 11:55:31;;;;;;;0.05;0.05;;;19.60;44.90;;;;;;5112308;28;20291;-51
2023/10/11 11:58:02;;;;;;;0.10;0.10;;;19.50;44.80;;;;;;5112676;28;20289;-45
2023/10/11 12:00:45;;;;;;;0.10;0.10;;;19.50;44.80;;;;;;5112332;28;20194;-55
2023/10/11 12:03:18;;;;;;;0.00;0.00;;;19.50;44.80;;;;;;5113354;28;20300;-53
2023/10/11 12:05:49;;;;;;;0.10;0.10;;;19.50;44.90;;;;;;5113125;28;20228;-55
2023/10/11 12:08:21;;;;;;;0.10;0.10;;;19.50;44.80;;;;;;5113229;28;20246;-56
2023/10/11 12:10:52;;;;;;;0.10;0.10;;;19.50;44.80;;;;;;5113571;28;20197;-55
2023/10/11 12:13:27;;;;;;;0.10;0.10;;;19.40;44.80;;;;;;5113279;28;20203;-57
2023/10/11 12:15:57;;;;;;;0.10;0.10;;;19.40;44.90;;;;;;5111997;28;20227;-56
2023/10/11 12:18:34;;;;;;;0.10;0.10;;;19.40;44.90;;;;;;5092501;28;20532;-54
2023/10/11 12:21:10;;;;;;;0.10;0.10;;;19.40;44.90;;;;;;5095078;28;20217;-52
2023/10/11 12:23:46;;;;;;;0.10;0.10;;;19.40;44.90;;;;;;5092351;28;20198;-55
2023/10/11 12:26:18;;;;;;;0.00;0.00;;;19.40;44.90;;;;;;5092200;28;20783;-50
2023/10/11 12:28:49;;;;;;;0.00;0.00;;;19.40;44.90;;;;;;5092636;28;20194;-55
2023/10/11 12:31:20;;;;;;;0.10;0.10;;;19.30;44.80;;;;;;5091969;28;20198;-54
2023/10/11 12:33:53;;;;;;;0.00;0.00;;;19.30;44.90;;;;;;5091964;28;20194;-51
2023/10/11 12:36:28;;;;;;;0.00;0.00;;;19.30;44.80;;;;;;5098857;28;20662;-55
2023/10/11 12:38:59;;;;;;;0.00;0.00;;;19.30;44.90;;;;;;5112379;28;20201;-48
2023/10/11 12:41:29;;;;;;;0.10;0.10;;;19.30;44.90;;;;;;5112539;28;20281;-56
2023/10/11 12:44:01;;;;;;;0.10;0.10;;;19.30;44.90;;;;;;5112377;28;20209;-46
2023/10/11 12:46:31;;;;;;;0.00;0.00;;;19.20;44.80;;;;;;5106930;27;20357;-55
2023/10/11 12:49:12;;;;;;;0.00;0.00;;;19.20;44.80;;;;;;5092017;28;20201;-51
2023/10/11 12:51:44;;;;;;;0.00;0.00;;;19.20;44.80;;;;;;5091356;28;20198;-56
2023/10/11 12:54:15;;;;;;;0.00;0.00;;;19.20;44.80;;;;;;5091311;28;20222;-54
2023/10/11 12:56:46;;;;;;;0.00;0.00;;;19.20;44.80;;;;;;5091473;28;20250;-56
2023/10/11 12:59:19;;;;;;;0.10;0.10;;;19.20;44.80;;;;;;5091492;28;20673;-51
2023/10/11 13:01:52;;;;;;;0.10;0.10;;;19.20;44.80;;;;;;5091824;28;20653;-47
2023/10/11 13:04:30;;;;;;;0.10;0.10;;;19.10;44.80;;;;;;5091565;28;20217;-57
2023/10/11 13:07:01;;;;;;;0.00;0.00;;;19.10;44.80;;;;;;5091554;28;20687;-55
2023/10/11 13:09:35;;;;;;;0.10;0.10;;;19.10;44.80;;;;;;5091888;28;20673;-47
2023/10/11 13:12:07;;;;;;;0.00;0.00;;;19.10;44.90;;;;;;5091529;28;20294;-46
2023/10/11 13:14:38;;;;;;;0.00;0.00;;;19.10;44.80;;;;;;5091736;28;20275;-55
2023/10/11 13:17:15;;;;;;;0.00;0.00;;;19.10;44.80;;;;;;5091292;28;20202;-51
2023/10/11 13:19:51;;;;;;;0.08;0.08;;;19.10;44.80;;;;;;5091314;28;20205;-48
2023/10/11 13:22:24;;;;;;;0.03;0.03;;;19.10;44.80;;;;;;5091795;28;20197;-54
2023/10/11 13:24:55;;;;;;;0.10;0.10;;;19.00;44.80;;;;;;5097697;28;20217;-51
2023/10/11 13:27:26;;;;;;;0.00;0.00;;;19.00;44.80;;;;;;5109644;28;20226;-48
2023/10/11 13:30:01;;;;;;;0.00;0.00;;;19.00;44.90;;;;;;5111069;28;20191;-54
2023/10/11 13:32:34;;;;;;;0.10;0.10;;;19.00;44.80;;;;;;5111584;28;20660;-54
2023/10/11 13:35:12;;;;;;;0.00;0.00;;;18.90;44.70;;;;;;5110913;28;20707;-52
2023/10/11 13:37:46;;;;;;;0.10;0.10;;;18.90;44.80;;;;;;5110893;28;20200;-52
2023/10/11 13:40:25;;;;;;;0.00;0.00;;;18.90;44.80;;;;;;5111455;28;20193;-47
2023/10/11 13:42:55;;;;;;;0.08;0.08;;;18.90;44.80;;;;;;5111955;28;20649;-53
2023/10/11 13:45:27;;;;;;;0.00;0.00;;;18.90;44.80;;;;;;5112238;28;20213;-46
2023/10/11 13:47:57;;;;;;;0.00;0.00;;;18.90;44.80;;;;;;5094127;28;20735;-57
2023/10/11 13:50:36;;;;;;;0.00;0.00;;;18.90;45.50;;;;;;5091393;28;20234;-56
2023/10/11 13:53:07;;;;;;;0.05;0.05;;;18.90;44.80;;;;;;5091126;28;20197;-49
2023/10/11 13:55:42;;;;;;;0.10;0.10;;;18.90;44.80;;;;;;5090644;28;20218;-50